sensor_id;sensor_type;location;lat;lon;timestamp;P1;durP1;ratioP1;P2;durP2;ratioP2
13171;SDS011;6651;53.200;10.432;2023-04-09T00:02:15;20.17;;;15.82;;
13171;SDS011;6651;53.200;10.432;2023-04-09T00:04:41;20.90;;;16.42;;
13171;SDS011;6651;53.200;10.432;2023-04-09T00:07:07;19.90;;;15.52;;
13171;SDS011;6651;53.200;10.432;2023-04-09T00:09:33;19.88;;;15.98;;
13171;SDS011;6651;53.200;10.432;2023-04-09T00:11:59;17.10;;;13.68;;
13171;SDS011;6651;53.200;10.432;2023-04-09T00:14:26;20.52;;;15.68;;
13171;SDS011;6651;53.200;10.432;2023-04-09T00:16:52;19.25;;;14.77;;
13171;SDS011;6651;53.200;10.432;2023-04-09T00:19:18;19.02;;;14.88;;
13171;SDS011;6651;53.200;10.432;2023-04-09T00:21:44;18.83;;;15.23;;
13171;SDS011;6651;53.200;10.432;2023-04-09T00:24:10;17.95;;;14.57;;
13171;SDS011;6651;53.200;10.432;2023-04-09T00:26:37;19.70;;;14.73;;
13171;SDS011;6651;53.200;10.432;2023-04-09T00:29:03;18.27;;;14.18;;
13171;SDS011;6651;53.200;10.432;2023-04-09T00:31:29;20.50;;;15.30;;
13171;SDS011;6651;53.200;10.432;2023-04-09T00:33:55;19.50;;;15.70;;
13171;SDS011;6651;53.200;10.432;2023-04-09T00:36:21;20.05;;;15.23;;
13171;SDS011;6651;53.200;10.432;2023-04-09T00:38:48;17.77;;;14.70;;
13171;SDS011;6651;53.200;10.432;2023-04-09T00:41:15;20.60;;;14.52;;
13171;SDS011;6651;53.200;10.432;2023-04-09T00:43:41;18.63;;;14.77;;
13171;SDS011;6651;53.200;10.432;2023-04-09T00:46:07;18.38;;;14.95;;
13171;SDS011;6651;53.200;10.432;2023-04-09T00:48:33;18.83;;;14.90;;
13171;SDS011;6651;53.200;10.432;2023-04-09T00:51:00;18.90;;;14.52;;
13171;SDS011;6651;53.200;10.432;2023-04-09T00:53:26;21.05;;;16.50;;
13171;SDS011;6651;53.200;10.432;2023-04-09T00:55:52;19.05;;;14.70;;
13171;SDS011;6651;53.200;10.432;2023-04-09T00:58:19;19.65;;;15.10;;
13171;SDS011;6651;53.200;10.432;2023-04-09T01:00:45;19.00;;;15.07;;
13171;SDS011;6651;53.200;10.432;2023-04-09T01:03:11;18.20;;;14.38;;
13171;SDS011;6651;53.200;10.432;2023-04-09T01:05:43;18.92;;;14.73;;
13171;SDS011;6651;53.200;10.432;2023-04-09T01:13:23;21.25;;;15.82;;
13171;SDS011;6651;53.200;10.432;2023-04-09T01:15:54;20.02;;;15.27;;
13171;SDS011;6651;53.200;10.432;2023-04-09T01:18:22;19.35;;;14.40;;
13171;SDS011;6651;53.200;10.432;2023-04-09T01:20:54;19.13;;;14.75;;
13171;SDS011;6651;53.200;10.432;2023-04-09T01:25:53;18.40;;;14.02;;
13171;SDS011;6651;53.200;10.432;2023-04-09T01:28:31;18.52;;;14.95;;
13171;SDS011;6651;53.200;10.432;2023-04-09T01:30:58;18.90;;;14.65;;
13171;SDS011;6651;53.200;10.432;2023-04-09T01:33:25;20.40;;;15.77;;
13171;SDS011;6651;53.200;10.432;2023-04-09T01:35:51;19.85;;;16.05;;
13171;SDS011;6651;53.200;10.432;2023-04-09T01:38:19;19.15;;;14.73;;
13171;SDS011;6651;53.200;10.432;2023-04-09T01:40:45;19.63;;;14.90;;
13171;SDS011;6651;53.200;10.432;2023-04-09T01:43:12;21.45;;;16.13;;
13171;SDS011;6651;53.200;10.432;2023-04-09T01:45:39;19.80;;;14.77;;
13171;SDS011;6651;53.200;10.432;2023-04-09T01:48:05;20.67;;;15.90;;
13171;SDS011;6651;53.200;10.432;2023-04-09T01:50:31;21.42;;;15.80;;
13171;SDS011;6651;53.200;10.432;2023-04-09T01:52:58;18.90;;;15.43;;
13171;SDS011;6651;53.200;10.432;2023-04-09T01:55:25;21.02;;;15.98;;
13171;SDS011;6651;53.200;10.432;2023-04-09T01:57:51;21.20;;;15.68;;
13171;SDS011;6651;53.200;10.432;2023-04-09T02:00:17;20.45;;;16.02;;
13171;SDS011;6651;53.200;10.432;2023-04-09T02:03:05;18.08;;;14.45;;
13171;SDS011;6651;53.200;10.432;2023-04-09T02:05:30;21.20;;;15.23;;
13171;SDS011;6651;53.200;10.432;2023-04-09T02:07:58;18.00;;;14.25;;
13171;SDS011;6651;53.200;10.432;2023-04-09T02:10:28;21.15;;;16.10;;
13171;SDS011;6651;53.200;10.432;2023-04-09T02:12:55;19.92;;;15.70;;
13171;SDS011;6651;53.200;10.432;2023-04-09T02:15:22;20.27;;;15.50;;
13171;SDS011;6651;53.200;10.432;2023-04-09T02:17:49;18.77;;;15.10;;
13171;SDS011;6651;53.200;10.432;2023-04-09T02:20:16;19.25;;;15.00;;
13171;SDS011;6651;53.200;10.432;2023-04-09T02:22:42;20.27;;;14.98;;
13171;SDS011;6651;53.200;10.432;2023-04-09T02:25:08;20.55;;;15.75;;
13171;SDS011;6651;53.200;10.432;2023-04-09T02:27:34;19.40;;;15.30;;
13171;SDS011;6651;53.200;10.432;2023-04-09T02:30:00;20.10;;;15.07;;
13171;SDS011;6651;53.200;10.432;2023-04-09T02:32:26;20.23;;;15.52;;
13171;SDS011;6651;53.200;10.432;2023-04-09T02:34:52;20.77;;;16.83;;
13171;SDS011;6651;53.200;10.432;2023-04-09T02:37:18;20.85;;;15.90;;
13171;SDS011;6651;53.200;10.432;2023-04-09T02:39:44;21.10;;;16.45;;
13171;SDS011;6651;53.200;10.432;2023-04-09T02:42:10;22.35;;;17.75;;
13171;SDS011;6651;53.200;10.432;2023-04-09T02:44:36;20.70;;;16.58;;
13171;SDS011;6651;53.200;10.432;2023-04-09T02:47:03;20.67;;;16.40;;
13171;SDS011;6651;53.200;10.432;2023-04-09T02:49:29;19.95;;;16.38;;
13171;SDS011;6651;53.200;10.432;2023-04-09T02:51:55;22.17;;;17.27;;
13171;SDS011;6651;53.200;10.432;2023-04-09T02:54:21;22.58;;;17.73;;
13171;SDS011;6651;53.200;10.432;2023-04-09T02:56:47;22.02;;;17.67;;
13171;SDS011;6651;53.200;10.432;2023-04-09T02:59:13;22.60;;;17.42;;
13171;SDS011;6651;53.200;10.432;2023-04-09T03:01:39;25.00;;;19.38;;
13171;SDS011;6651;53.200;10.432;2023-04-09T03:04:05;23.42;;;18.02;;
13171;SDS011;6651;53.200;10.432;2023-04-09T03:06:31;23.20;;;18.85;;
13171;SDS011;6651;53.200;10.432;2023-04-09T03:08:58;20.52;;;17.73;;
13171;SDS011;6651;53.200;10.432;2023-04-09T03:11:24;23.58;;;18.23;;
13171;SDS011;6651;53.200;10.432;2023-04-09T03:13:50;26.27;;;18.38;;
13171;SDS011;6651;53.200;10.432;2023-04-09T03:16:16;22.05;;;17.08;;
13171;SDS011;6651;53.200;10.432;2023-04-09T03:18:42;23.13;;;16.75;;
13171;SDS011;6651;53.200;10.432;2023-04-09T03:21:08;19.27;;;15.63;;
13171;SDS011;6651;53.200;10.432;2023-04-09T03:23:34;19.40;;;15.07;;
13171;SDS011;6651;53.200;10.432;2023-04-09T03:26:01;18.65;;;14.57;;
13171;SDS011;6651;53.200;10.432;2023-04-09T03:28:27;19.70;;;15.15;;
13171;SDS011;6651;53.200;10.432;2023-04-09T03:30:54;19.02;;;14.10;;
13171;SDS011;6651;53.200;10.432;2023-04-09T03:33:20;17.35;;;14.35;;
13171;SDS011;6651;53.200;10.432;2023-04-09T03:35:46;19.92;;;14.68;;
13171;SDS011;6651;53.200;10.432;2023-04-09T03:38:12;18.15;;;15.75;;
13171;SDS011;6651;53.200;10.432;2023-04-09T03:40:38;20.33;;;16.23;;
13171;SDS011;6651;53.200;10.432;2023-04-09T03:43:04;19.88;;;15.23;;
13171;SDS011;6651;53.200;10.432;2023-04-09T03:45:30;20.45;;;16.15;;
13171;SDS011;6651;53.200;10.432;2023-04-09T03:47:56;17.55;;;14.30;;
13171;SDS011;6651;53.200;10.432;2023-04-09T03:50:22;18.73;;;15.23;;
13171;SDS011;6651;53.200;10.432;2023-04-09T03:52:48;20.23;;;16.48;;
13171;SDS011;6651;53.200;10.432;2023-04-09T03:55:14;19.60;;;15.25;;
13171;SDS011;6651;53.200;10.432;2023-04-09T03:57:40;21.67;;;16.23;;
13171;SDS011;6651;53.200;10.432;2023-04-09T04:00:06;22.85;;;17.42;;
13171;SDS011;6651;53.200;10.432;2023-04-09T04:02:33;27.50;;;19.80;;
13171;SDS011;6651;53.200;10.432;2023-04-09T04:04:59;24.70;;;18.80;;
13171;SDS011;6651;53.200;10.432;2023-04-09T04:07:25;30.80;;;22.60;;
13171;SDS011;6651;53.200;10.432;2023-04-09T04:09:51;30.92;;;23.00;;
13171;SDS011;6651;53.200;10.432;2023-04-09T04:12:17;35.38;;;24.52;;
13171;SDS011;6651;53.200;10.432;2023-04-09T04:14:43;31.30;;;23.88;;
13171;SDS011;6651;53.200;10.432;2023-04-09T04:17:09;39.33;;;27.23;;
13171;SDS011;6651;53.200;10.432;2023-04-09T04:19:35;37.53;;;26.30;;
13171;SDS011;6651;53.200;10.432;2023-04-09T04:22:01;41.78;;;27.55;;
13171;SDS011;6651;53.200;10.432;2023-04-09T04:24:27;42.20;;;28.60;;
13171;SDS011;6651;53.200;10.432;2023-04-09T04:26:53;41.85;;;28.10;;
13171;SDS011;6651;53.200;10.432;2023-04-09T04:29:20;41.90;;;27.70;;
13171;SDS011;6651;53.200;10.432;2023-04-09T04:31:46;41.88;;;28.60;;
13171;SDS011;6651;53.200;10.432;2023-04-09T04:34:12;37.63;;;26.60;;
13171;SDS011;6651;53.200;10.432;2023-04-09T04:36:38;46.50;;;29.52;;
13171;SDS011;6651;53.200;10.432;2023-04-09T04:39:04;40.88;;;28.20;;
13171;SDS011;6651;53.200;10.432;2023-04-09T04:41:30;42.60;;;28.02;;
13171;SDS011;6651;53.200;10.432;2023-04-09T04:43:56;47.40;;;31.15;;
13171;SDS011;6651;53.200;10.432;2023-04-09T04:46:22;50.03;;;31.13;;
13171;SDS011;6651;53.200;10.432;2023-04-09T04:48:48;43.95;;;28.33;;
13171;SDS011;6651;53.200;10.432;2023-04-09T04:51:14;44.88;;;29.75;;
13171;SDS011;6651;53.200;10.432;2023-04-09T04:53:40;51.83;;;30.48;;
13171;SDS011;6651;53.200;10.432;2023-04-09T04:56:11;47.95;;;31.35;;
13171;SDS011;6651;53.200;10.432;2023-04-09T04:58:37;48.97;;;31.77;;
13171;SDS011;6651;53.200;10.432;2023-04-09T05:01:03;56.67;;;32.50;;
13171;SDS011;6651;53.200;10.432;2023-04-09T05:03:29;50.83;;;32.95;;
13171;SDS011;6651;53.200;10.432;2023-04-09T05:05:55;72.85;;;33.38;;
13171;SDS011;6651;53.200;10.432;2023-04-09T05:08:21;47.67;;;31.80;;
13171;SDS011;6651;53.200;10.432;2023-04-09T05:10:47;48.20;;;31.73;;
13171;SDS011;6651;53.200;10.432;2023-04-09T05:13:13;39.35;;;27.85;;
13171;SDS011;6651;53.200;10.432;2023-04-09T05:15:39;49.58;;;31.67;;
13171;SDS011;6651;53.200;10.432;2023-04-09T05:18:06;40.13;;;28.50;;
13171;SDS011;6651;53.200;10.432;2023-04-09T05:20:32;39.35;;;28.00;;
13171;SDS011;6651;53.200;10.432;2023-04-09T05:22:59;42.83;;;28.70;;
13171;SDS011;6651;53.200;10.432;2023-04-09T05:25:25;40.20;;;28.40;;
13171;SDS011;6651;53.200;10.432;2023-04-09T05:27:51;81.65;;;31.90;;
13171;SDS011;6651;53.200;10.432;2023-04-09T05:30:20;67.10;;;30.98;;
13171;SDS011;6651;53.200;10.432;2023-04-09T05:32:46;50.05;;;30.48;;
13171;SDS011;6651;53.200;10.432;2023-04-09T05:35:12;37.38;;;27.67;;
13171;SDS011;6651;53.200;10.432;2023-04-09T05:37:38;57.33;;;27.58;;
13171;SDS011;6651;53.200;10.432;2023-04-09T05:40:04;44.38;;;27.73;;
13171;SDS011;6651;53.200;10.432;2023-04-09T05:42:30;45.92;;;28.20;;
13171;SDS011;6651;53.200;10.432;2023-04-09T05:44:56;32.50;;;25.35;;
13171;SDS011;6651;53.200;10.432;2023-04-09T05:47:22;39.78;;;26.08;;
13171;SDS011;6651;53.200;10.432;2023-04-09T05:49:48;32.85;;;26.05;;
13171;SDS011;6651;53.200;10.432;2023-04-09T05:52:14;44.17;;;25.88;;
13171;SDS011;6651;53.200;10.432;2023-04-09T05:54:41;29.85;;;24.35;;
13171;SDS011;6651;53.200;10.432;2023-04-09T05:57:07;32.33;;;24.25;;
13171;SDS011;6651;53.200;10.432;2023-04-09T05:59:33;31.75;;;25.33;;
13171;SDS011;6651;53.200;10.432;2023-04-09T06:01:59;34.22;;;26.83;;
13171;SDS011;6651;53.200;10.432;2023-04-09T06:04:25;37.33;;;26.98;;
13171;SDS011;6651;53.200;10.432;2023-04-09T06:06:51;35.28;;;26.15;;
13171;SDS011;6651;53.200;10.432;2023-04-09T06:09:17;33.15;;;26.27;;
13171;SDS011;6651;53.200;10.432;2023-04-09T06:11:43;33.83;;;27.08;;
13171;SDS011;6651;53.200;10.432;2023-04-09T06:14:09;45.78;;;26.88;;
13171;SDS011;6651;53.200;10.432;2023-04-09T06:16:40;38.72;;;28.33;;
13171;SDS011;6651;53.200;10.432;2023-04-09T06:19:06;36.10;;;26.50;;
13171;SDS011;6651;53.200;10.432;2023-04-09T06:21:32;42.92;;;29.45;;
13171;SDS011;6651;53.200;10.432;2023-04-09T06:23:58;39.72;;;29.45;;
13171;SDS011;6651;53.200;10.432;2023-04-09T06:26:24;44.00;;;30.13;;
13171;SDS011;6651;53.200;10.432;2023-04-09T06:28:50;40.00;;;28.80;;
13171;SDS011;6651;53.200;10.432;2023-04-09T06:31:16;34.47;;;26.63;;
13171;SDS011;6651;53.200;10.432;2023-04-09T06:33:43;35.30;;;27.45;;
13171;SDS011;6651;53.200;10.432;2023-04-09T06:36:09;32.00;;;25.40;;
13171;SDS011;6651;53.200;10.432;2023-04-09T06:38:35;33.58;;;27.38;;
13171;SDS011;6651;53.200;10.432;2023-04-09T06:41:01;32.10;;;25.25;;
13171;SDS011;6651;53.200;10.432;2023-04-09T06:43:30;36.47;;;26.88;;
13171;SDS011;6651;53.200;10.432;2023-04-09T06:45:56;35.85;;;28.05;;
13171;SDS011;6651;53.200;10.432;2023-04-09T06:48:22;34.55;;;27.15;;
13171;SDS011;6651;53.200;10.432;2023-04-09T06:50:48;36.58;;;28.48;;
13171;SDS011;6651;53.200;10.432;2023-04-09T06:53:14;40.92;;;28.70;;
13171;SDS011;6651;53.200;10.432;2023-04-09T06:55:41;40.42;;;29.27;;
13171;SDS011;6651;53.200;10.432;2023-04-09T06:58:07;34.95;;;27.27;;
13171;SDS011;6651;53.200;10.432;2023-04-09T07:00:33;38.63;;;29.30;;
13171;SDS011;6651;53.200;10.432;2023-04-09T07:02:59;35.65;;;27.08;;
13171;SDS011;6651;53.200;10.432;2023-04-09T07:05:25;36.47;;;27.83;;
13171;SDS011;6651;53.200;10.432;2023-04-09T07:07:51;35.10;;;27.27;;
13171;SDS011;6651;53.200;10.432;2023-04-09T07:10:17;32.70;;;26.02;;
13171;SDS011;6651;53.200;10.432;2023-04-09T07:12:43;35.47;;;27.85;;
13171;SDS011;6651;53.200;10.432;2023-04-09T07:15:09;34.45;;;27.77;;
13171;SDS011;6651;53.200;10.432;2023-04-09T07:17:35;35.50;;;27.45;;
13171;SDS011;6651;53.200;10.432;2023-04-09T07:20:01;39.88;;;29.08;;
13171;SDS011;6651;53.200;10.432;2023-04-09T07:22:28;39.10;;;29.20;;
13171;SDS011;6651;53.200;10.432;2023-04-09T07:24:54;36.38;;;28.40;;
13171;SDS011;6651;53.200;10.432;2023-04-09T07:27:24;35.40;;;26.83;;
13171;SDS011;6651;53.200;10.432;2023-04-09T07:29:53;36.28;;;28.17;;
13171;SDS011;6651;53.200;10.432;2023-04-09T07:32:19;34.30;;;26.55;;
13171;SDS011;6651;53.200;10.432;2023-04-09T07:34:45;34.70;;;26.98;;
13171;SDS011;6651;53.200;10.432;2023-04-09T07:37:11;34.25;;;26.27;;
13171;SDS011;6651;53.200;10.432;2023-04-09T07:39:37;32.70;;;26.02;;
13171;SDS011;6651;53.200;10.432;2023-04-09T07:42:03;32.78;;;25.92;;
13171;SDS011;6651;53.200;10.432;2023-04-09T07:44:33;33.88;;;27.15;;
13171;SDS011;6651;53.200;10.432;2023-04-09T07:47:00;31.27;;;25.23;;
13171;SDS011;6651;53.200;10.432;2023-04-09T07:49:26;31.02;;;25.52;;
13171;SDS011;6651;53.200;10.432;2023-04-09T07:51:52;31.95;;;24.75;;
13171;SDS011;6651;53.200;10.432;2023-04-09T07:54:18;31.27;;;25.20;;
13171;SDS011;6651;53.200;10.432;2023-04-09T07:56:45;35.30;;;26.45;;
13171;SDS011;6651;53.200;10.432;2023-04-09T07:59:11;32.40;;;24.85;;
13171;SDS011;6651;53.200;10.432;2023-04-09T08:01:39;31.75;;;25.45;;
13171;SDS011;6651;53.200;10.432;2023-04-09T08:04:05;29.52;;;24.30;;
13171;SDS011;6651;53.200;10.432;2023-04-09T08:06:32;29.73;;;24.13;;
13171;SDS011;6651;53.200;10.432;2023-04-09T08:08:58;27.40;;;23.15;;
13171;SDS011;6651;53.200;10.432;2023-04-09T08:11:24;26.10;;;21.52;;
13171;SDS011;6651;53.200;10.432;2023-04-09T08:13:51;28.58;;;21.70;;
13171;SDS011;6651;53.200;10.432;2023-04-09T08:16:17;25.27;;;21.08;;
13171;SDS011;6651;53.200;10.432;2023-04-09T08:18:43;25.95;;;21.73;;
13171;SDS011;6651;53.200;10.432;2023-04-09T08:21:09;26.13;;;21.88;;
13171;SDS011;6651;53.200;10.432;2023-04-09T08:23:35;27.35;;;22.35;;
13171;SDS011;6651;53.200;10.432;2023-04-09T08:26:01;28.95;;;22.55;;
13171;SDS011;6651;53.200;10.432;2023-04-09T08:28:28;26.25;;;21.67;;
13171;SDS011;6651;53.200;10.432;2023-04-09T08:30:54;26.52;;;20.98;;
13171;SDS011;6651;53.200;10.432;2023-04-09T08:33:20;26.23;;;21.90;;
13171;SDS011;6651;53.200;10.432;2023-04-09T08:35:46;25.48;;;20.38;;
13171;SDS011;6651;53.200;10.432;2023-04-09T08:38:12;27.70;;;21.85;;
13171;SDS011;6651;53.200;10.432;2023-04-09T08:40:39;26.58;;;21.48;;
13171;SDS011;6651;53.200;10.432;2023-04-09T08:43:06;25.20;;;20.88;;
13171;SDS011;6651;53.200;10.432;2023-04-09T08:45:32;25.88;;;21.10;;
13171;SDS011;6651;53.200;10.432;2023-04-09T08:47:59;26.15;;;21.27;;
13171;SDS011;6651;53.200;10.432;2023-04-09T08:50:30;25.95;;;20.80;;
13171;SDS011;6651;53.200;10.432;2023-04-09T08:52:58;26.85;;;21.05;;
13171;SDS011;6651;53.200;10.432;2023-04-09T08:55:27;27.40;;;21.60;;
13171;SDS011;6651;53.200;10.432;2023-04-09T08:57:53;24.80;;;20.33;;
13171;SDS011;6651;53.200;10.432;2023-04-09T09:00:19;24.33;;;20.75;;
13171;SDS011;6651;53.200;10.432;2023-04-09T09:05:37;24.38;;;20.42;;
13171;SDS011;6651;53.200;10.432;2023-04-09T09:08:03;23.13;;;18.45;;
13171;SDS011;6651;53.200;10.432;2023-04-09T09:10:43;23.77;;;19.85;;
13171;SDS011;6651;53.200;10.432;2023-04-09T09:13:22;23.73;;;18.95;;
13171;SDS011;6651;53.200;10.432;2023-04-09T09:15:49;23.88;;;20.17;;
13171;SDS011;6651;53.200;10.432;2023-04-09T09:18:19;23.45;;;18.45;;
13171;SDS011;6651;53.200;10.432;2023-04-09T09:20:45;24.85;;;19.65;;
13171;SDS011;6651;53.200;10.432;2023-04-09T09:23:11;24.35;;;19.52;;
13171;SDS011;6651;53.200;10.432;2023-04-09T09:25:38;24.67;;;20.17;;
13171;SDS011;6651;53.200;10.432;2023-04-09T09:28:08;23.48;;;19.70;;
13171;SDS011;6651;53.200;10.432;2023-04-09T09:30:35;22.02;;;18.45;;
13171;SDS011;6651;53.200;10.432;2023-04-09T09:33:03;22.92;;;17.98;;
13171;SDS011;6651;53.200;10.432;2023-04-09T09:35:30;23.75;;;19.48;;
13171;SDS011;6651;53.200;10.432;2023-04-09T09:38:00;22.95;;;19.20;;
13171;SDS011;6651;53.200;10.432;2023-04-09T09:40:27;21.70;;;18.85;;
13171;SDS011;6651;53.200;10.432;2023-04-09T09:42:56;24.02;;;19.15;;
13171;SDS011;6651;53.200;10.432;2023-04-09T09:45:23;23.10;;;19.63;;
13171;SDS011;6651;53.200;10.432;2023-04-09T09:47:51;22.00;;;18.67;;
13171;SDS011;6651;53.200;10.432;2023-04-09T09:50:18;21.27;;;17.80;;
13171;SDS011;6651;53.200;10.432;2023-04-09T09:52:45;22.20;;;18.60;;
13171;SDS011;6651;53.200;10.432;2023-04-09T09:55:14;20.77;;;18.48;;
13171;SDS011;6651;53.200;10.432;2023-04-09T09:57:41;21.05;;;18.70;;
13171;SDS011;6651;53.200;10.432;2023-04-09T10:00:09;23.30;;;18.75;;
13171;SDS011;6651;53.200;10.432;2023-04-09T10:02:39;21.38;;;18.80;;
13171;SDS011;6651;53.200;10.432;2023-04-09T10:05:09;21.05;;;18.70;;
13171;SDS011;6651;53.200;10.432;2023-04-09T10:07:35;22.52;;;18.92;;
13171;SDS011;6651;53.200;10.432;2023-04-09T10:10:02;20.90;;;18.70;;
13171;SDS011;6651;53.200;10.432;2023-04-09T10:12:30;22.63;;;19.15;;
13171;SDS011;6651;53.200;10.432;2023-04-09T10:14:57;22.27;;;18.75;;
13171;SDS011;6651;53.200;10.432;2023-04-09T10:17:28;23.15;;;18.35;;
13171;SDS011;6651;53.200;10.432;2023-04-09T10:19:58;21.80;;;17.75;;
13171;SDS011;6651;53.200;10.432;2023-04-09T10:22:26;20.13;;;17.58;;
13171;SDS011;6651;53.200;10.432;2023-04-09T10:24:54;19.33;;;17.27;;
13171;SDS011;6651;53.200;10.432;2023-04-09T10:27:21;21.40;;;18.10;;
13171;SDS011;6651;53.200;10.432;2023-04-09T10:29:48;19.90;;;17.67;;
13171;SDS011;6651;53.200;10.432;2023-04-09T10:32:19;20.00;;;17.05;;
13171;SDS011;6651;53.200;10.432;2023-04-09T10:34:46;18.05;;;16.15;;
13171;SDS011;6651;53.200;10.432;2023-04-09T10:37:14;21.50;;;18.80;;
13171;SDS011;6651;53.200;10.432;2023-04-09T10:39:44;20.95;;;18.40;;
13171;SDS011;6651;53.200;10.432;2023-04-09T10:42:12;20.02;;;17.88;;
13171;SDS011;6651;53.200;10.432;2023-04-09T10:44:39;18.25;;;16.30;;
13171;SDS011;6651;53.200;10.432;2023-04-09T10:47:08;19.10;;;17.08;;
13171;SDS011;6651;53.200;10.432;2023-04-09T10:49:40;19.23;;;17.02;;
13171;SDS011;6651;53.200;10.432;2023-04-09T10:52:07;19.10;;;17.05;;
13171;SDS011;6651;53.200;10.432;2023-04-09T10:54:40;19.45;;;17.27;;
13171;SDS011;6651;53.200;10.432;2023-04-09T10:57:17;20.10;;;17.77;;
13171;SDS011;6651;53.200;10.432;2023-04-09T10:59:47;18.40;;;16.45;;
13171;SDS011;6651;53.200;10.432;2023-04-09T11:07:26;17.25;;;15.40;;
13171;SDS011;6651;53.200;10.432;2023-04-09T11:09:53;17.60;;;15.75;;
13171;SDS011;6651;53.200;10.432;2023-04-09T11:12:19;22.50;;;19.75;;
13171;SDS011;6651;53.200;10.432;2023-04-09T11:14:45;18.02;;;16.10;;
13171;SDS011;6651;53.200;10.432;2023-04-09T11:17:12;17.70;;;15.80;;
13171;SDS011;6651;53.200;10.432;2023-04-09T11:19:38;19.45;;;16.58;;
13171;SDS011;6651;53.200;10.432;2023-04-09T11:22:04;18.42;;;15.75;;
13171;SDS011;6651;53.200;10.432;2023-04-09T11:24:43;18.40;;;16.50;;
13171;SDS011;6651;53.200;10.432;2023-04-09T11:27:10;18.05;;;16.15;;
13171;SDS011;6651;53.200;10.432;2023-04-09T11:29:36;18.50;;;16.33;;
13171;SDS011;6651;53.200;10.432;2023-04-09T11:32:02;19.63;;;17.23;;
13171;SDS011;6651;53.200;10.432;2023-04-09T11:34:31;18.17;;;16.20;;
13171;SDS011;6651;53.200;10.432;2023-04-09T11:36:57;17.92;;;15.82;;
13171;SDS011;6651;53.200;10.432;2023-04-09T11:39:27;18.52;;;16.48;;
13171;SDS011;6651;53.200;10.432;2023-04-09T11:41:53;18.33;;;15.88;;
13171;SDS011;6651;53.200;10.432;2023-04-09T11:44:19;18.80;;;16.80;;
13171;SDS011;6651;53.200;10.432;2023-04-09T11:46:46;17.63;;;15.82;;
13171;SDS011;6651;53.200;10.432;2023-04-09T11:49:13;17.90;;;15.98;;
13171;SDS011;6651;53.200;10.432;2023-04-09T11:51:39;19.52;;;16.23;;
13171;SDS011;6651;53.200;10.432;2023-04-09T11:54:05;17.83;;;16.02;;
13171;SDS011;6651;53.200;10.432;2023-04-09T11:56:31;17.65;;;15.80;;
13171;SDS011;6651;53.200;10.432;2023-04-09T11:58:58;16.90;;;14.93;;
13171;SDS011;6651;53.200;10.432;2023-04-09T12:01:24;18.17;;;15.70;;
13171;SDS011;6651;53.200;10.432;2023-04-09T12:03:53;16.35;;;14.70;;
13171;SDS011;6651;53.200;10.432;2023-04-09T12:06:20;16.65;;;14.90;;
13171;SDS011;6651;53.200;10.432;2023-04-09T12:08:47;17.73;;;15.02;;
13171;SDS011;6651;53.200;10.432;2023-04-09T12:11:17;17.35;;;15.55;;
13171;SDS011;6651;53.200;10.432;2023-04-09T12:13:44;17.65;;;15.38;;
13171;SDS011;6651;53.200;10.432;2023-04-09T12:16:11;16.45;;;14.75;;
13171;SDS011;6651;53.200;10.432;2023-04-09T12:18:37;15.73;;;13.82;;
13171;SDS011;6651;53.200;10.432;2023-04-09T12:21:03;15.85;;;14.15;;
13171;SDS011;6651;53.200;10.432;2023-04-09T12:23:30;15.93;;;14.25;;
13171;SDS011;6651;53.200;10.432;2023-04-09T12:25:56;15.43;;;13.82;;
13171;SDS011;6651;53.200;10.432;2023-04-09T12:28:26;15.65;;;14.05;;
13171;SDS011;6651;53.200;10.432;2023-04-09T12:30:52;17.30;;;14.30;;
13171;SDS011;6651;53.200;10.432;2023-04-09T12:33:19;15.25;;;13.65;;
13171;SDS011;6651;53.200;10.432;2023-04-09T12:35:45;15.20;;;13.70;;
13171;SDS011;6651;53.200;10.432;2023-04-09T12:38:11;15.57;;;13.93;;
13171;SDS011;6651;53.200;10.432;2023-04-09T12:40:37;15.07;;;13.52;;
13171;SDS011;6651;53.200;10.432;2023-04-09T12:43:04;14.70;;;13.20;;
13171;SDS011;6651;53.200;10.432;2023-04-09T12:45:30;12.82;;;11.52;;
13171;SDS011;6651;53.200;10.432;2023-04-09T12:47:56;12.00;;;10.80;;
13171;SDS011;6651;53.200;10.432;2023-04-09T12:50:22;11.95;;;10.75;;
13171;SDS011;6651;53.200;10.432;2023-04-09T12:52:48;12.35;;;11.10;;
13171;SDS011;6651;53.200;10.432;2023-04-09T12:55:15;12.85;;;11.50;;
13171;SDS011;6651;53.200;10.432;2023-04-09T12:57:42;12.20;;;10.90;;
13171;SDS011;6651;53.200;10.432;2023-04-09T13:00:09;12.23;;;10.82;;
13171;SDS011;6651;53.200;10.432;2023-04-09T13:02:35;12.80;;;11.05;;
13171;SDS011;6651;53.200;10.432;2023-04-09T13:05:01;13.25;;;11.85;;
13171;SDS011;6651;53.200;10.432;2023-04-09T13:07:28;12.95;;;11.65;;
13171;SDS011;6651;53.200;10.432;2023-04-09T13:09:54;11.93;;;10.73;;
13171;SDS011;6651;53.200;10.432;2023-04-09T13:12:21;12.63;;;11.43;;
13171;SDS011;6651;53.200;10.432;2023-04-09T13:14:47;14.27;;;11.93;;
13171;SDS011;6651;53.200;10.432;2023-04-09T13:17:14;12.82;;;11.52;;
13171;SDS011;6651;53.200;10.432;2023-04-09T13:19:40;12.27;;;11.07;;
13171;SDS011;6651;53.200;10.432;2023-04-09T13:22:06;12.50;;;11.23;;
13171;SDS011;6651;53.200;10.432;2023-04-09T13:24:36;13.55;;;12.23;;
13171;SDS011;6651;53.200;10.432;2023-04-09T13:27:03;13.50;;;12.10;;
13171;SDS011;6651;53.200;10.432;2023-04-09T13:29:29;12.90;;;11.60;;
13171;SDS011;6651;53.200;10.432;2023-04-09T13:31:55;13.27;;;11.88;;
13171;SDS011;6651;53.200;10.432;2023-04-09T13:34:22;13.65;;;11.65;;
13171;SDS011;6651;53.200;10.432;2023-04-09T13:36:48;12.63;;;11.32;;
13171;SDS011;6651;53.200;10.432;2023-04-09T13:39:14;11.57;;;9.98;;
13171;SDS011;6651;53.200;10.432;2023-04-09T13:41:40;11.07;;;9.98;;
13171;SDS011;6651;53.200;10.432;2023-04-09T13:44:06;12.32;;;10.90;;
13171;SDS011;6651;53.200;10.432;2023-04-09T13:46:32;12.25;;;10.95;;
13171;SDS011;6651;53.200;10.432;2023-04-09T13:48:58;12.15;;;10.90;;
13171;SDS011;6651;53.200;10.432;2023-04-09T13:51:25;13.07;;;11.77;;
13171;SDS011;6651;53.200;10.432;2023-04-09T13:53:53;13.02;;;11.18;;
13171;SDS011;6651;53.200;10.432;2023-04-09T13:56:19;12.50;;;11.20;;
13171;SDS011;6651;53.200;10.432;2023-04-09T13:58:45;13.95;;;12.50;;
13171;SDS011;6651;53.200;10.432;2023-04-09T14:01:12;11.98;;;10.85;;
13171;SDS011;6651;53.200;10.432;2023-04-09T14:03:38;11.88;;;10.68;;
13171;SDS011;6651;53.200;10.432;2023-04-09T14:06:08;11.70;;;10.50;;
13171;SDS011;6651;53.200;10.432;2023-04-09T14:08:34;12.18;;;10.38;;
13171;SDS011;6651;53.200;10.432;2023-04-09T14:11:00;11.57;;;10.45;;
13171;SDS011;6651;53.200;10.432;2023-04-09T14:13:27;11.63;;;10.43;;
13171;SDS011;6651;53.200;10.432;2023-04-09T14:15:53;11.52;;;10.18;;
13171;SDS011;6651;53.200;10.432;2023-04-09T14:18:19;10.57;;;9.48;;
13171;SDS011;6651;53.200;10.432;2023-04-09T14:20:45;11.75;;;10.45;;
13171;SDS011;6651;53.200;10.432;2023-04-09T14:23:11;11.82;;;10.63;;
13171;SDS011;6651;53.200;10.432;2023-04-09T14:25:37;11.50;;;10.30;;
13171;SDS011;6651;53.200;10.432;2023-04-09T14:28:03;11.63;;;9.95;;
13171;SDS011;6651;53.200;10.432;2023-04-09T14:30:29;11.43;;;10.23;;
13171;SDS011;6651;53.200;10.432;2023-04-09T14:32:55;11.07;;;9.98;;
13171;SDS011;6651;53.200;10.432;2023-04-09T14:35:21;10.57;;;9.07;;